createdAt,value
2017-10-11T00:02:42.585Z,1008.82
2017-10-11T00:07:37.923Z,1008.80
2017-10-11T00:12:34.506Z,1008.84
2017-10-11T00:17:30.641Z,1008.77
2017-10-11T00:22:27.329Z,1008.80
2017-10-11T00:27:22.914Z,1008.78
2017-10-11T00:32:18.821Z,1008.78
2017-10-11T00:37:14.438Z,1008.75
2017-10-11T00:42:10.390Z,1008.63
2017-10-11T00:47:06.269Z,1008.63
2017-10-11T00:52:02.265Z,1008.59
2017-10-11T00:56:58.113Z,1008.62
2017-10-11T01:01:53.955Z,1008.70
2017-10-11T01:06:50.124Z,1008.75
2017-10-11T01:11:46.083Z,1008.77
2017-10-11T01:16:42.005Z,1008.62
2017-10-11T01:21:39.594Z,1008.73
2017-10-11T01:26:36.037Z,1008.64
2017-10-11T01:31:31.540Z,1008.64
2017-10-11T01:36:28.836Z,1008.64
2017-10-11T01:41:24.337Z,1008.57
2017-10-11T01:46:21.251Z,1008.55
2017-10-11T01:51:17.771Z,1008.62
2017-10-11T01:56:13.442Z,1008.63
2017-10-11T02:01:09.604Z,1008.60
2017-10-11T02:06:05.224Z,1008.66
2017-10-11T02:11:02.044Z,1008.79
2017-10-11T02:15:57.575Z,1008.66
2017-10-11T02:20:55.465Z,1008.70
2017-10-11T02:25:50.838Z,1008.71
2017-10-11T02:30:47.059Z,1008.65
2017-10-11T02:35:44.808Z,1008.59
2017-10-11T02:40:39.912Z,1008.50
2017-10-11T02:45:36.208Z,1008.55
2017-10-11T02:50:32.690Z,1008.45
2017-10-11T02:55:29.821Z,1008.48
2017-10-11T03:00:25.556Z,1008.42
2017-10-11T03:05:23.174Z,1008.45
2017-10-11T03:10:19.373Z,1008.23
2017-10-11T03:15:15.039Z,1008.36
2017-10-11T03:20:12.066Z,1008.45
2017-10-11T03:30:14.160Z,1008.31
2017-10-11T03:35:11.547Z,1008.20
2017-10-11T03:40:07.258Z,1008.22
2017-10-11T03:45:03.038Z,1008.18
2017-10-11T03:49:59.178Z,1008.26
2017-10-11T03:54:55.359Z,1008.28
2017-10-11T03:59:52.497Z,1008.24
2017-10-11T04:04:48.685Z,1008.26
2017-10-11T04:09:45.421Z,1008.23
2017-10-11T04:14:42.023Z,1008.23
2017-10-11T04:19:38.924Z,1008.18
2017-10-11T04:24:34.605Z,1008.29
2017-10-11T04:29:31.636Z,1008.17
2017-10-11T04:34:27.322Z,1008.28
2017-10-11T04:39:23.366Z,1008.20
2017-10-11T04:44:19.153Z,1008.23
2017-10-11T04:49:15.189Z,1008.18
2017-10-11T04:54:12.248Z,1008.12
2017-10-11T04:59:09.084Z,1008.15
2017-10-11T05:04:04.733Z,1008.06
2017-10-11T05:09:02.471Z,1007.99
2017-10-11T05:13:58.887Z,1007.93
2017-10-11T05:18:54.492Z,1007.98
2017-10-11T05:23:50.263Z,1007.99
2017-10-11T05:28:46.436Z,1007.99
2017-10-11T05:33:42.144Z,1008.19
2017-10-11T05:38:38.984Z,1008.06
2017-10-11T05:43:35.015Z,1008.19
2017-10-11T05:48:31.714Z,1008.22
2017-10-11T05:53:27.255Z,1008.34
2017-10-11T05:58:23.248Z,1008.35
2017-10-11T06:03:19.934Z,1008.44
2017-10-11T06:08:16.210Z,1008.27
2017-10-11T06:13:12.245Z,1008.42
2017-10-11T06:18:08.126Z,1008.50
2017-10-11T06:23:04.187Z,1008.42
2017-10-11T06:28:00.965Z,1008.30
2017-10-11T06:32:57.347Z,1008.43
2017-10-11T06:37:52.887Z,1008.62
2017-10-11T06:42:49.740Z,1008.67
2017-10-11T06:47:45.754Z,1008.68
2017-10-11T06:52:42.706Z,1008.61
2017-10-11T06:57:38.221Z,1008.70
2017-10-11T07:02:35.129Z,1008.66
2017-10-11T07:07:30.871Z,1008.64
2017-10-11T07:12:26.793Z,1008.67
2017-10-11T07:17:22.485Z,1008.77
2017-10-11T07:22:18.381Z,1008.81
2017-10-11T07:27:15.817Z,1008.81
2017-10-11T07:32:11.737Z,1008.90
2017-10-11T07:37:08.983Z,1008.82
2017-10-11T07:42:04.802Z,1008.85
2017-10-11T07:47:00.815Z,1008.82
2017-10-11T07:51:56.903Z,1008.91
2017-10-11T07:56:53.016Z,1008.82
2017-10-11T08:01:50.009Z,1008.85
2017-10-11T08:06:46.678Z,1008.92
2017-10-11T08:11:42.362Z,1008.96
2017-10-11T08:16:38.314Z,1008.96
2017-10-11T08:21:33.894Z,1009.02
2017-10-11T08:26:31.000Z,1009.06
2017-10-11T08:31:28.623Z,1009.04
2017-10-11T08:36:24.356Z,1009.05
2017-10-11T08:41:20.228Z,1009.05
2017-10-11T08:46:16.142Z,1009.02
2017-10-11T08:51:13.442Z,1009.07
2017-10-11T08:56:09.214Z,1009.15
2017-10-11T09:01:05.188Z,1009.26
2017-10-11T09:06:02.277Z,1009.15
2017-10-11T09:10:57.981Z,1009.16
2017-10-11T09:15:54.105Z,1009.25
2017-10-11T09:20:50.111Z,1009.23
2017-10-11T09:25:47.405Z,1009.16
2017-10-11T09:30:45.014Z,1009.19
2017-10-11T09:35:40.401Z,1009.13
2017-10-11T09:40:36.304Z,1009.18
2017-10-11T09:45:32.302Z,1009.05
2017-10-11T09:50:28.168Z,1009.19
2017-10-11T09:55:25.275Z,1009.19
2017-10-11T10:00:20.772Z,1009.14
2017-10-11T10:05:16.594Z,1009.21
2017-10-11T10:10:12.604Z,1009.23
2017-10-11T10:15:09.114Z,1009.24
2017-10-11T10:20:06.258Z,1009.21
2017-10-11T10:25:02.954Z,1009.29
2017-10-11T10:29:58.435Z,1009.25
2017-10-11T10:34:54.003Z,1009.23
2017-10-11T10:39:50.115Z,1009.16
2017-10-11T10:44:46.336Z,1009.29
2017-10-11T10:49:42.533Z,1009.27
2017-10-11T10:54:38.991Z,1009.16
2017-10-11T10:59:35.373Z,1009.10
2017-10-11T11:04:31.902Z,1009.07
2017-10-11T11:09:29.398Z,1008.91
2017-10-11T11:14:25.929Z,1008.94
2017-10-11T11:19:22.487Z,1008.80
2017-10-11T11:24:18.414Z,1008.72
2017-10-11T11:29:15.175Z,1008.71
2017-10-11T11:34:10.728Z,1008.77
2017-10-11T11:39:08.994Z,1008.73
2017-10-11T11:44:05.380Z,1008.83
2017-10-11T11:49:00.479Z,1008.76
2017-10-11T11:53:56.225Z,1008.68
2017-10-11T11:58:53.225Z,1008.69
2017-10-11T12:03:48.722Z,1008.67
2017-10-11T12:08:45.700Z,1008.60
2017-10-11T12:13:42.184Z,1008.54
2017-10-11T12:18:37.673Z,1008.48
2017-10-11T12:23:34.254Z,1008.54
2017-10-11T12:28:29.842Z,1008.53
2017-10-11T12:33:26.933Z,1008.51
2017-10-11T12:38:23.557Z,1008.37
2017-10-11T12:43:21.238Z,1008.44
2017-10-11T12:48:17.848Z,1008.29
2017-10-11T12:53:14.921Z,1008.26
2017-10-11T12:58:10.892Z,1008.26
2017-10-11T13:03:07.397Z,1008.22
2017-10-11T13:08:03.625Z,1008.19
2017-10-11T13:13:01.238Z,1008.22
2017-10-11T13:17:58.370Z,1008.16
2017-10-11T13:22:55.978Z,1008.17
2017-10-11T13:27:51.648Z,1008.12
2017-10-11T13:32:50.744Z,1008.05
2017-10-11T13:37:46.411Z,1008.06
2017-10-11T13:42:42.266Z,1008.13
2017-10-11T13:47:39.084Z,1008.10
2017-10-11T13:52:34.874Z,1008.02
2017-10-11T13:57:32.726Z,1008.08
2017-10-11T14:02:28.129Z,1008.02
2017-10-11T14:07:23.591Z,1007.98
2017-10-11T14:12:20.642Z,1008.04
2017-10-11T14:17:17.284Z,1008.08
2017-10-11T14:22:14.031Z,1008.04
2017-10-11T14:27:09.489Z,1007.98
2017-10-11T14:32:05.434Z,1007.94
2017-10-11T14:37:01.336Z,1008.02
2017-10-11T14:41:58.494Z,1007.90
2017-10-11T14:46:54.560Z,1007.85
2017-10-11T14:51:50.951Z,1007.87
2017-10-11T14:56:47.644Z,1007.91
2017-10-11T15:01:43.479Z,1007.85
2017-10-11T15:11:46.157Z,1007.88
2017-10-11T15:16:42.623Z,1007.70
2017-10-11T15:21:38.645Z,1007.82
2017-10-11T15:26:35.467Z,1007.78
2017-10-11T15:36:34.803Z,1007.75
2017-10-11T15:41:34.940Z,1007.78
2017-10-11T15:46:31.024Z,1007.76
2017-10-11T15:51:27.813Z,1007.81
2017-10-11T15:56:23.562Z,1007.67
2017-10-11T16:01:21.834Z,1007.71
2017-10-11T16:06:17.150Z,1007.72
2017-10-11T16:11:13.806Z,1007.69
2017-10-11T16:16:10.025Z,1007.75
2017-10-11T16:21:07.145Z,1007.74
2017-10-11T16:26:04.936Z,1007.66
2017-10-11T16:41:19.530Z,1007.67
2017-10-11T16:46:15.184Z,1007.54
2017-10-11T16:51:10.918Z,1007.53
2017-10-11T16:56:10.367Z,1007.54
2017-10-11T17:01:11.995Z,1007.60
2017-10-11T17:06:07.886Z,1007.55
2017-10-11T17:11:08.101Z,1007.57
2017-10-11T17:16:04.266Z,1007.59
2017-10-11T17:21:00.149Z,1007.60
2017-10-11T17:25:56.461Z,1007.57
2017-10-11T17:30:52.551Z,1007.52
2017-10-11T17:35:48.835Z,1007.53
2017-10-11T17:40:44.959Z,1007.54
2017-10-11T17:45:40.902Z,1007.46
2017-10-11T17:50:39.268Z,1007.55
2017-10-11T17:55:34.670Z,1007.43
2017-10-11T18:00:32.102Z,1007.49
2017-10-11T18:05:27.845Z,1007.48
2017-10-11T18:10:24.663Z,1007.58
2017-10-11T18:15:20.988Z,1007.54
2017-10-11T18:20:17.662Z,1007.56
2017-10-11T18:25:16.729Z,1007.48
2017-10-11T18:30:13.305Z,1007.47
2017-10-11T18:35:09.494Z,1007.31
2017-10-11T18:40:05.431Z,1007.31
2017-10-11T18:45:02.598Z,1007.34
2017-10-11T18:49:58.371Z,1007.26
2017-10-11T18:54:56.682Z,1007.28
2017-10-11T18:59:52.336Z,1007.15
2017-10-11T19:04:48.435Z,1007.07
2017-10-11T19:09:44.474Z,1007.19
2017-10-11T19:14:40.427Z,1007.14
2017-10-11T19:19:38.532Z,1007.06
2017-10-11T19:24:34.697Z,1007.23
2017-10-11T19:29:31.464Z,1007.16
2017-10-11T19:34:27.011Z,1007.12
2017-10-11T19:39:23.395Z,1007.21
2017-10-11T19:44:20.453Z,1007.09
2017-10-11T19:49:17.127Z,1007.07
2017-10-11T19:54:13.671Z,1007.23
2017-10-11T19:59:09.326Z,1007.31
2017-10-11T20:04:06.351Z,1007.21
2017-10-11T20:09:03.243Z,1007.21
2017-10-11T20:13:58.942Z,1007.23
2017-10-11T20:18:55.993Z,1007.10
2017-10-11T20:23:52.842Z,1007.11
2017-10-11T20:28:48.494Z,1007.12
2017-10-11T20:38:45.358Z,1007.13
2017-10-11T20:43:43.905Z,1007.16
2017-10-11T20:48:47.097Z,1007.09
2017-10-11T20:53:48.312Z,1007.06
2017-10-11T20:58:46.186Z,1006.98
2017-10-11T21:03:47.760Z,1006.98
2017-10-11T21:08:49.043Z,1006.91
2017-10-11T21:13:44.546Z,1006.97
2017-10-11T21:18:40.570Z,1006.93
2017-10-11T21:23:36.295Z,1006.85
2017-10-11T21:28:33.490Z,1006.84
2017-10-11T21:33:30.551Z,1006.84
2017-10-11T21:38:27.418Z,1006.81
2017-10-11T21:43:23.374Z,1006.75
2017-10-11T21:48:19.314Z,1006.76
2017-10-11T21:53:16.217Z,1006.75
2017-10-11T21:58:12.622Z,1006.72
2017-10-11T22:03:09.009Z,1006.69
2017-10-11T22:08:04.868Z,1006.56
2017-10-11T22:13:01.067Z,1006.65
2017-10-11T22:17:57.233Z,1006.51
2017-10-11T22:22:53.331Z,1006.45
2017-10-11T22:27:50.246Z,1006.35
2017-10-11T22:32:45.836Z,1006.33
2017-10-11T22:37:42.770Z,1006.32
2017-10-11T22:42:39.542Z,1006.24
2017-10-11T22:47:35.169Z,1006.13
2017-10-11T22:52:31.987Z,1006.16
2017-10-11T22:57:27.588Z,1006.15
2017-10-11T23:02:23.408Z,1006.12
2017-10-11T23:07:19.681Z,1006.03
2017-10-11T23:12:16.771Z,1006.08
2017-10-11T23:17:12.375Z,1005.94
2017-10-11T23:22:10.455Z,1005.89
2017-10-11T23:27:06.743Z,1005.78
2017-10-11T23:32:02.551Z,1005.53
2017-10-11T23:36:58.429Z,1005.44
2017-10-11T23:41:54.517Z,1005.57
2017-10-11T23:46:50.445Z,1005.43
2017-10-11T23:51:46.561Z,1005.46
2017-10-11T23:56:42.373Z,1005.42
